Time;durP1;ratioP1;P1;durP2;ratioP2;P2;SDS_P1;SDS_P2;PMS_P1;PMS_P2;Temp;Humidity;BMP_temperature;BMP_pressure;BME280_temperature;BME280_humidity;BME280_pressure;Samples;Min_cycle;Max_cycle;Signal;HPM_P1;HPM_P2
2021/12/01 10:18:16;;;;;;;10.75;8.48;;;2.10;99.90;;;;;;3829309;37;20145;-75
2021/12/01 10:20:45;;;;;;;10.65;8.23;;;2.00;99.90;;;;;;4353656;32;20069;-76
2021/12/01 10:23:14;;;;;;;11.15;8.05;;;1.90;99.90;;;;;;4378736;32;20106;-76
2021/12/01 10:25:41;;;;;;;10.95;7.10;;;2.10;99.90;;;;;;4353391;32;20194;-76
2021/12/01 10:28:07;;;;;;;10.23;7.00;;;2.00;99.90;;;;;;4365170;32;20142;-75
2021/12/01 10:30:46;;;;;;;7.50;5.32;;;2.00;99.90;;;;;;4377538;32;20218;-75
2021/12/01 10:33:18;;;;;;;6.60;4.80;;;1.90;99.90;;;;;;4353034;32;20092;-76
2021/12/01 10:35:44;;;;;;;6.43;4.22;;;2.00;99.90;;;;;;4377475;32;20081;-74
2021/12/01 10:38:13;;;;;;;7.80;5.18;;;1.80;99.90;;;;;;4365353;32;20176;-77
2021/12/01 10:40:41;;;;;;;7.12;4.62;;;2.00;99.90;;;;;;4341447;32;20089;-77
2021/12/01 10:43:12;;;;;;;6.53;4.28;;;1.90;99.90;;;;;;4341307;32;20104;-77
2021/12/01 10:45:46;;;;;;;7.72;5.53;;;1.90;99.90;;;;;;4352304;32;20109;-74
2021/12/01 10:48:21;;;;;;;8.57;5.15;;;2.00;99.90;;;;;;4365211;32;20070;-75
2021/12/01 10:50:47;;;;;;;7.28;5.20;;;1.90;99.90;;;;;;4341633;32;20591;-74
2021/12/01 10:53:19;;;;;;;8.00;5.43;;;1.80;99.90;;;;;;4365116;32;20095;-75
2021/12/01 10:55:48;;;;;;;8.38;6.35;;;2.00;99.90;;;;;;4364702;32;20085;-76
2021/12/01 10:58:15;;;;;;;10.88;7.70;;;2.00;99.90;;;;;;4352771;32;20070;-74
2021/12/01 11:00:46;;;;;;;11.38;7.90;;;1.80;99.90;;;;;;4352263;32;20525;-73
2021/12/01 11:03:17;;;;;;;11.77;7.25;;;1.80;99.90;;;;;;4365958;32;20080;-77
2021/12/01 11:05:50;;;;;;;11.55;7.22;;;1.90;99.90;;;;;;4364079;32;20093;-74
2021/12/01 11:08:21;;;;;;;8.15;5.72;;;1.80;99.90;;;;;;4350815;32;20154;-76
2021/12/01 11:11:07;;;;;;;7.80;5.75;;;1.70;99.90;;;;;;4338246;32;20067;-76
2021/12/01 11:13:33;;;;;;;8.93;6.00;;;1.80;99.90;;;;;;4362098;32;20081;-74
2021/12/01 11:16:02;;;;;;;8.18;5.55;;;1.70;99.90;;;;;;4361933;32;20182;-75
2021/12/01 11:18:31;;;;;;;8.85;5.15;;;1.60;99.90;;;;;;4354654;32;20074;-74
2021/12/01 11:21:19;;;;;;;8.38;5.70;;;1.60;99.90;;;;;;4340195;32;20172;-79
2021/12/01 11:23:46;;;;;;;7.15;4.62;;;1.60;99.90;;;;;;4352093;32;20105;-74
2021/12/01 11:26:18;;;;;;;6.72;4.68;;;1.60;99.90;;;;;;4364590;32;20081;-74
2021/12/01 11:28:58;;;;;;;6.57;4.43;;;1.70;99.90;;;;;;4352589;32;20162;-73
2021/12/01 11:31:27;;;;;;;7.10;4.68;;;1.80;99.90;;;;;;4353437;32;20167;-74
2021/12/01 11:33:58;;;;;;;6.10;4.28;;;1.80;99.90;;;;;;4339628;32;20074;-76
2021/12/01 11:36:36;;;;;;;6.28;4.75;;;2.00;99.90;;;;;;4348637;32;20496;-75
2021/12/01 11:39:06;;;;;;;5.85;4.10;;;2.10;99.90;;;;;;4335524;32;20102;-75
2021/12/01 11:41:36;;;;;;;7.22;4.80;;;1.90;99.90;;;;;;4339487;32;20448;-72
2021/12/01 11:44:03;;;;;;;6.55;4.53;;;1.90;99.90;;;;;;4340049;32;20631;-80
2021/12/01 11:46:32;;;;;;;7.12;5.30;;;1.90;99.90;;;;;;4338218;32;20108;-71
2021/12/01 11:49:01;;;;;;;6.85;4.82;;;1.80;99.90;;;;;;4347715;32;20071;-71
2021/12/01 11:51:46;;;;;;;7.37;5.40;;;1.90;99.90;;;;;;4343125;32;20529;-75
2021/12/01 11:54:19;;;;;;;8.30;5.80;;;1.70;99.90;;;;;;4359166;32;20074;-77
2021/12/01 11:57:08;;;;;;;10.05;5.72;;;1.70;99.90;;;;;;4359656;32;20081;-75
2021/12/01 11:59:47;;;;;;;9.20;6.12;;;1.70;99.90;;;;;;4323283;32;20156;-75
2021/12/01 12:02:19;;;;;;;10.20;7.05;;;1.70;99.90;;;;;;4345974;32;20164;-77
2021/12/01 12:05:15;;;;;;;9.52;5.20;;;1.60;99.90;;;;;;4349349;32;20149;-75
2021/12/01 12:07:44;;;;;;;8.50;5.20;;;1.70;99.90;;;;;;4347349;32;20095;-77
2021/12/01 12:10:16;;;;;;;9.32;5.43;;;1.70;99.90;;;;;;4335420;32;20077;-73
2021/12/01 12:13:10;;;;;;;11.75;7.25;;;1.80;99.90;;;;;;4348134;32;20133;-74
2021/12/01 12:15:51;;;;;;;7.90;6.32;;;1.60;99.90;;;;;;4352205;32;20071;-72
2021/12/01 12:18:37;;;;;;;9.35;6.18;;;1.70;99.90;;;;;;4347009;32;20220;-73
2021/12/01 12:21:43;;;;;;;8.55;5.82;;;1.70;99.90;;;;;;4358957;32;20098;-73
2021/12/01 12:24:20;;;;;;;9.70;6.15;;;1.60;99.90;;;;;;4329848;32;20062;-73
2021/12/01 12:26:53;;;;;;;9.40;6.68;;;1.60;99.90;;;;;;4325511;32;20519;-75
2021/12/01 12:29:22;;;;;;;9.25;6.10;;;1.50;99.90;;;;;;4343646;32;20090;-73
2021/12/01 12:31:51;;;;;;;9.82;6.53;;;1.60;99.90;;;;;;4335942;32;20067;-74
2021/12/01 12:34:21;;;;;;;9.70;5.70;;;1.60;99.90;;;;;;4337784;32;20150;-73
2021/12/01 12:36:56;;;;;;;8.90;5.85;;;1.60;99.90;;;;;;4336350;32;20476;-68
2021/12/01 12:39:27;;;;;;;8.82;5.87;;;1.60;99.90;;;;;;4333301;32;20159;-75
2021/12/01 12:42:05;;;;;;;10.88;7.43;;;1.60;99.90;;;;;;4320041;32;20080;-73
2021/12/01 12:44:38;;;;;;;8.98;6.90;;;1.40;99.90;;;;;;4349908;32;20186;-77
2021/12/01 12:47:13;;;;;;;9.07;6.50;;;1.50;99.90;;;;;;4338876;32;20147;-77
2021/12/01 12:50:01;;;;;;;10.20;6.68;;;1.40;99.90;;;;;;4326910;32;20074;-74
2021/12/01 12:52:29;;;;;;;8.43;6.60;;;1.40;99.90;;;;;;4305823;32;20071;-75
2021/12/01 12:54:56;;;;;;;10.18;6.68;;;1.60;99.90;;;;;;4334419;32;20153;-74
2021/12/01 12:57:50;;;;;;;9.15;6.10;;;1.50;99.90;;;;;;4336152;32;20234;-78
2021/12/01 13:00:26;;;;;;;8.38;5.72;;;1.60;99.90;;;;;;4334177;32;20071;-75
2021/12/01 13:02:54;;;;;;;8.07;5.90;;;1.60;99.90;;;;;;4347929;32;20530;-77
2021/12/01 13:05:38;;;;;;;9.10;5.85;;;1.40;99.90;;;;;;4337267;32;20178;-78
2021/12/01 13:08:39;;;;;;;9.32;6.68;;;1.50;99.90;;;;;;4336035;32;20064;-82
2021/12/01 13:11:14;;;;;;;8.70;5.65;;;1.50;99.90;;;;;;4351914;32;20168;-79
2021/12/01 13:13:56;;;;;;;7.82;5.90;;;1.50;99.90;;;;;;4344096;32;20913;-77
2021/12/01 13:16:23;;;;;;;8.18;5.90;;;1.40;99.90;;;;;;4335782;32;20110;-81
2021/12/01 13:18:51;;;;;;;7.68;5.68;;;1.50;99.90;;;;;;4321796;32;20159;-78
2021/12/01 13:21:25;;;;;;;9.10;6.32;;;1.50;99.90;;;;;;4335691;32;20078;-75
2021/12/01 13:23:54;;;;;;;9.48;6.75;;;1.50;99.90;;;;;;4300742;32;20719;-74
2021/12/01 13:26:28;;;;;;;8.80;6.30;;;1.40;99.90;;;;;;4332078;32;20097;-81
2021/12/01 13:29:07;;;;;;;10.65;6.62;;;1.50;99.90;;;;;;4346055;32;20062;-76
2021/12/01 13:31:38;;;;;;;9.00;5.80;;;1.40;99.90;;;;;;4345855;32;20117;-81
2021/12/01 13:34:12;;;;;;;6.65;5.35;;;1.40;99.90;;;;;;4348143;32;20523;-79
2021/12/01 13:36:45;;;;;;;6.82;4.97;;;1.40;99.90;;;;;;4345049;32;20081;-76
2021/12/01 13:39:14;;;;;;;7.05;4.90;;;1.40;99.90;;;;;;4344058;32;20159;-75
2021/12/01 13:41:45;;;;;;;6.57;5.00;;;1.40;99.90;;;;;;4347185;32;20094;-76
2021/12/01 13:44:15;;;;;;;6.95;4.55;;;1.40;99.90;;;;;;4347811;32;20088;-78
2021/12/01 13:46:42;;;;;;;6.55;4.43;;;1.30;99.90;;;;;;4334748;32;20092;-78
2021/12/01 13:49:08;;;;;;;6.43;4.45;;;1.30;99.90;;;;;;4317064;32;20508;-77
2021/12/01 13:51:44;;;;;;;6.72;4.80;;;1.30;99.90;;;;;;4347216;32;20096;-77
2021/12/01 13:54:24;;;;;;;7.27;4.30;;;1.30;99.90;;;;;;4351425;32;20483;-77
2021/12/01 13:57:07;;;;;;;5.90;4.28;;;1.30;99.90;;;;;;4324524;32;20097;-78
2021/12/01 13:59:51;;;;;;;5.22;3.70;;;1.20;99.90;;;;;;4328230;32;20063;-77
2021/12/01 14:02:30;;;;;;;6.28;4.37;;;1.20;99.90;;;;;;4337462;32;20198;-76
2021/12/01 14:05:00;;;;;;;6.20;4.03;;;1.20;99.90;;;;;;4339447;32;20175;-77
2021/12/01 14:07:47;;;;;;;6.22;4.22;;;1.20;99.90;;;;;;4328547;32;20530;-75
2021/12/01 14:10:30;;;;;;;6.18;4.28;;;1.20;99.90;;;;;;4336724;32;20134;-78
2021/12/01 14:12:58;;;;;;;6.03;4.20;;;1.20;99.90;;;;;;4342132;32;20051;-74
2021/12/01 14:15:46;;;;;;;5.40;3.33;;;1.30;99.90;;;;;;4334336;32;20493;-78
2021/12/01 14:18:15;;;;;;;4.03;2.92;;;1.30;99.90;;;;;;4325817;32;20109;-78
2021/12/01 14:20:42;;;;;;;4.22;2.75;;;1.30;99.90;;;;;;4323327;32;20098;-75
2021/12/01 14:23:08;;;;;;;5.00;3.58;;;1.40;99.90;;;;;;4354967;32;20074;-75
2021/12/01 14:25:35;;;;;;;4.82;3.50;;;1.30;99.90;;;;;;4336575;32;20086;-76
2021/12/01 14:28:07;;;;;;;5.12;3.30;;;1.30;99.90;;;;;;4334324;32;20161;-77
2021/12/01 14:30:35;;;;;;;4.62;3.37;;;1.30;99.90;;;;;;4333619;32;20101;-79
2021/12/01 14:33:02;;;;;;;6.45;3.70;;;1.30;99.90;;;;;;4347270;32;20173;-77
2021/12/01 14:35:28;;;;;;;5.87;3.78;;;1.40;99.90;;;;;;4322902;32;20094;-78
2021/12/01 14:37:56;;;;;;;5.62;4.03;;;1.50;99.90;;;;;;4335443;32;20113;-78
2021/12/01 14:40:22;;;;;;;6.55;4.65;;;1.30;99.90;;;;;;4335661;32;20609;-77
2021/12/01 14:42:54;;;;;;;6.80;4.47;;;1.40;99.90;;;;;;4336136;32;20109;-78
2021/12/01 14:45:23;;;;;;;5.80;4.15;;;1.40;99.90;;;;;;4335322;32;20075;-79
2021/12/01 14:48:10;;;;;;;5.75;4.18;;;1.40;99.90;;;;;;4323031;32;20078;-78
2021/12/01 14:50:39;;;;;;;5.82;4.07;;;1.40;99.90;;;;;;4335732;32;20083;-79
2021/12/01 14:53:18;;;;;;;6.45;4.25;;;1.40;99.90;;;;;;4336572;32;20185;-77
2021/12/01 14:55:46;;;;;;;4.65;3.55;;;1.40;99.90;;;;;;4337867;32;20074;-78
2021/12/01 14:58:15;;;;;;;5.43;3.92;;;1.30;99.90;;;;;;4340717;32;20504;-77
2021/12/01 15:00:49;;;;;;;5.68;3.80;;;1.30;99.90;;;;;;4340000;32;20105;-77
2021/12/01 15:03:20;;;;;;;6.05;4.30;;;1.30;99.90;;;;;;4341377;32;20074;-77
2021/12/01 15:05:52;;;;;;;7.05;4.35;;;1.20;99.90;;;;;;4340448;32;20085;-78
2021/12/01 15:08:30;;;;;;;7.30;4.28;;;1.30;99.90;;;;;;4339828;32;20101;-78
2021/12/01 15:11:11;;;;;;;5.35;4.03;;;1.30;99.90;;;;;;4340636;32;20148;-78
2021/12/01 15:13:43;;;;;;;5.80;4.43;;;1.40;99.90;;;;;;4340588;32;20093;-79
2021/12/01 15:16:23;;;;;;;5.30;4.00;;;1.30;99.90;;;;;;4339975;32;20074;-78
2021/12/01 15:19:11;;;;;;;6.30;4.15;;;1.30;99.90;;;;;;4352428;32;20149;-78
2021/12/01 15:21:46;;;;;;;8.02;5.60;;;1.30;99.90;;;;;;4353930;32;20070;-79
2021/12/01 15:24:23;;;;;;;8.75;3.75;;;1.30;99.90;;;;;;4340417;32;20090;-78
2021/12/01 15:26:52;;;;;;;7.12;4.50;;;1.30;99.90;;;;;;4339588;32;20084;-78
2021/12/01 15:29:25;;;;;;;6.68;4.82;;;1.40;99.90;;;;;;4352318;32;20155;-78
2021/12/01 15:31:54;;;;;;;6.60;4.43;;;1.40;99.90;;;;;;4352404;32;20178;-76
2021/12/01 15:34:21;;;;;;;7.70;4.18;;;1.40;99.90;;;;;;4378564;32;20096;-78
2021/12/01 15:36:48;;;;;;;8.05;5.07;;;1.40;99.90;;;;;;4339619;32;20147;-78
2021/12/01 15:39:17;;;;;;;10.40;5.97;;;1.40;99.90;;;;;;4351605;32;20089;-79
2021/12/01 15:41:44;;;;;;;9.90;5.43;;;1.40;99.90;;;;;;4364820;32;20093;-78
2021/12/01 15:44:13;;;;;;;10.82;6.10;;;1.50;99.90;;;;;;4351667;32;20168;-78
2021/12/01 15:46:41;;;;;;;6.75;4.65;;;1.40;99.90;;;;;;4327165;32;20085;-78
2021/12/01 15:49:08;;;;;;;6.53;5.12;;;1.40;99.90;;;;;;4351810;32;20101;-77
2021/12/01 15:51:35;;;;;;;8.90;5.30;;;1.40;99.90;;;;;;4339852;32;20079;-79
2021/12/01 15:54:01;;;;;;;6.93;5.12;;;1.40;99.90;;;;;;4351751;32;20067;-78
2021/12/01 15:56:27;;;;;;;8.65;5.82;;;1.40;99.90;;;;;;4339810;32;20488;-78
2021/12/01 15:58:53;;;;;;;9.80;5.30;;;1.30;99.90;;;;;;4351534;32;20110;-78
2021/12/01 16:01:19;;;;;;;8.35;5.55;;;1.30;99.90;;;;;;4351520;32;20082;-78
2021/12/01 16:03:46;;;;;;;7.00;4.93;;;1.30;99.90;;;;;;4327304;32;20158;-78
2021/12/01 16:06:13;;;;;;;8.30;5.10;;;1.30;99.90;;;;;;4363777;32;20548;-77
2021/12/01 16:08:39;;;;;;;7.25;4.82;;;1.20;99.90;;;;;;4364037;32;20086;-79
2021/12/01 16:11:10;;;;;;;8.45;5.55;;;1.20;99.90;;;;;;4338896;32;20536;-78
2021/12/01 16:13:37;;;;;;;5.93;4.62;;;1.20;99.90;;;;;;4353275;32;20086;-79
2021/12/01 16:16:05;;;;;;;7.57;4.97;;;1.20;99.90;;;;;;4327597;32;20166;-78
2021/12/01 16:18:32;;;;;;;6.53;4.75;;;1.20;99.90;;;;;;4351486;32;20082;-78
2021/12/01 16:21:01;;;;;;;6.95;4.93;;;1.20;99.90;;;;;;4339301;32;20151;-78
2021/12/01 16:23:28;;;;;;;6.82;4.80;;;1.20;99.90;;;;;;4338843;32;20516;-78
2021/12/01 16:25:56;;;;;;;6.15;4.70;;;1.30;99.90;;;;;;4351187;32;20101;-78
2021/12/01 16:28:23;;;;;;;6.03;4.15;;;1.30;99.90;;;;;;4364005;32;20097;-78
2021/12/01 16:30:50;;;;;;;6.47;4.53;;;1.40;99.90;;;;;;4339403;32;20074;-78
2021/12/01 16:33:16;;;;;;;6.47;4.45;;;1.40;99.90;;;;;;4339045;32;20081;-79
2021/12/01 16:35:42;;;;;;;6.62;4.68;;;1.40;99.90;;;;;;4363851;32;20081;-78
2021/12/01 16:38:10;;;;;;;5.65;4.30;;;1.40;99.90;;;;;;4338609;32;20084;-79
2021/12/01 16:40:37;;;;;;;7.62;4.20;;;1.40;99.90;;;;;;4351017;32;20138;-78
2021/12/01 16:43:07;;;;;;;5.47;4.22;;;1.50;99.90;;;;;;4339083;32;20101;-78
2021/12/01 16:45:34;;;;;;;7.05;4.53;;;1.50;99.90;;;;;;4351135;32;20159;-78
2021/12/01 16:48:00;;;;;;;6.10;4.15;;;1.40;99.90;;;;;;4338578;32;20154;-77
2021/12/01 16:50:27;;;;;;;8.02;5.15;;;1.40;99.90;;;;;;4326817;32;20158;-78
2021/12/01 16:52:53;;;;;;;6.70;4.70;;;1.50;99.90;;;;;;4363237;32;20074;-78
2021/12/01 16:55:23;;;;;;;7.07;4.57;;;1.40;99.90;;;;;;4339011;32;20089;-78
2021/12/01 16:57:50;;;;;;;6.68;4.30;;;1.40;99.90;;;;;;4327096;32;20148;-78
2021/12/01 17:00:19;;;;;;;6.30;4.30;;;1.40;99.90;;;;;;4351478;32;20093;-78
2021/12/01 17:02:46;;;;;;;5.78;4.40;;;1.40;99.90;;;;;;4350893;32;20141;-77
2021/12/01 17:05:14;;;;;;;7.15;5.10;;;1.40;99.90;;;;;;4326455;32;20062;-77
2021/12/01 17:07:59;;;;;;;7.25;5.25;;;1.40;99.90;;;;;;4338895;32;20161;-78
2021/12/01 17:10:26;;;;;;;5.80;4.50;;;1.40;99.90;;;;;;4355383;32;20066;-78
2021/12/01 17:12:52;;;;;;;5.85;4.10;;;1.30;99.90;;;;;;4338349;32;20098;-77
2021/12/01 17:15:18;;;;;;;7.55;4.53;;;1.30;99.90;;;;;;4337954;32;20448;-78
2021/12/01 17:17:46;;;;;;;5.47;4.18;;;1.20;99.90;;;;;;4362990;32;20082;-76
2021/12/01 17:20:15;;;;;;;4.87;4.00;;;1.30;99.90;;;;;;4350464;32;20165;-78
2021/12/01 17:22:41;;;;;;;4.97;3.78;;;1.30;99.90;;;;;;4339050;32;20166;-79
2021/12/01 17:25:19;;;;;;;5.57;4.00;;;1.30;99.90;;;;;;4338441;32;20111;-78
2021/12/01 17:27:45;;;;;;;5.87;4.03;;;1.30;99.90;;;;;;4351805;32;20075;-77
2021/12/01 17:30:16;;;;;;;5.90;3.92;;;1.30;99.90;;;;;;4350441;32;20074;-78
2021/12/01 17:32:43;;;;;;;5.65;3.78;;;1.30;99.90;;;;;;4327437;32;20076;-78
2021/12/01 17:35:09;;;;;;;5.55;3.90;;;1.30;99.90;;;;;;4314122;32;20062;-77
2021/12/01 17:37:37;;;;;;;6.57;3.65;;;1.30;99.90;;;;;;4350599;32;20155;-77
2021/12/01 17:40:04;;;;;;;6.07;4.00;;;1.20;99.90;;;;;;4326001;32;20085;-77
2021/12/01 17:42:30;;;;;;;5.18;3.90;;;1.20;99.90;;;;;;4350489;32;20101;-76
2021/12/01 17:44:58;;;;;;;5.70;4.00;;;1.20;99.90;;;;;;4349802;32;20472;-78
2021/12/01 17:47:24;;;;;;;4.97;4.10;;;1.20;99.90;;;;;;4350912;32;20527;-77
2021/12/01 17:49:51;;;;;;;4.35;3.40;;;1.20;99.90;;;;;;4314229;32;20088;-77
2021/12/01 17:52:17;;;;;;;6.12;3.83;;;1.10;99.90;;;;;;4349941;32;20065;-77
2021/12/01 17:54:44;;;;;;;5.28;3.60;;;1.20;99.90;;;;;;4338279;32;20492;-77
2021/12/01 17:57:12;;;;;;;5.18;3.70;;;1.10;99.90;;;;;;4350178;32;20070;-77
2021/12/01 17:59:39;;;;;;;5.62;3.40;;;1.10;99.90;;;;;;4350050;32;20096;-77
2021/12/01 18:02:07;;;;;;;4.85;3.22;;;1.10;99.90;;;;;;4337863;32;20097;-77
2021/12/01 18:04:34;;;;;;;6.55;3.65;;;1.10;99.90;;;;;;4338273;32;20191;-77
2021/12/01 18:07:00;;;;;;;5.85;3.40;;;1.20;99.90;;;;;;4338366;32;20094;-78
2021/12/01 18:09:26;;;;;;;4.57;3.20;;;1.20;99.90;;;;;;4350030;32;20066;-77
2021/12/01 18:11:53;;;;;;;5.30;3.42;;;1.20;99.90;;;;;;4362378;32;20085;-77
2021/12/01 18:14:19;;;;;;;5.85;3.28;;;1.10;99.90;;;;;;4338021;32;20066;-77
2021/12/01 18:16:45;;;;;;;6.78;3.30;;;1.10;99.90;;;;;;4362132;32;20081;-78
2021/12/01 18:19:11;;;;;;;6.57;3.47;;;1.00;99.90;;;;;;4350010;32;20082;-77
2021/12/01 18:21:38;;;;;;;5.72;2.58;;;1.00;99.90;;;;;;4350312;32;20174;-77
2021/12/01 18:24:07;;;;;;;4.00;2.55;;;0.90;99.90;;;;;;4338103;32;20499;-77
2021/12/01 18:26:34;;;;;;;4.18;2.72;;;0.90;99.90;;;;;;4337487;32;20078;-77
2021/12/01 18:29:00;;;;;;;4.55;2.83;;;0.90;99.90;;;;;;4352231;32;20121;-77
2021/12/01 18:31:27;;;;;;;5.72;3.30;;;0.90;99.90;;;;;;4352902;32;20529;-77
2021/12/01 18:33:53;;;;;;;5.40;3.40;;;0.80;99.90;;;;;;4328627;32;20171;-77
2021/12/01 18:36:19;;;;;;;6.60;3.47;;;0.70;99.90;;;;;;4352684;32;20089;-78
2021/12/01 18:38:48;;;;;;;6.43;3.28;;;0.70;99.90;;;;;;4328219;32;20074;-77
2021/12/01 18:41:16;;;;;;;4.93;3.33;;;0.70;99.90;;;;;;4353321;32;20516;-78
2021/12/01 18:43:42;;;;;;;5.57;3.25;;;0.60;99.90;;;;;;4340870;32;20165;-77
2021/12/01 18:46:08;;;;;;;4.37;2.90;;;0.70;99.90;;;;;;4352686;32;20146;-77
2021/12/01 18:48:35;;;;;;;3.80;2.62;;;0.70;99.90;;;;;;4341008;32;20074;-78
2021/12/01 18:51:01;;;;;;;4.95;2.95;;;0.70;99.90;;;;;;4352737;32;20092;-77
2021/12/01 18:53:27;;;;;;;5.07;3.10;;;0.60;99.90;;;;;;4340723;32;20158;-77
2021/12/01 18:55:53;;;;;;;4.80;3.00;;;0.50;99.90;;;;;;4352578;32;20082;-77
2021/12/01 18:58:19;;;;;;;4.60;2.97;;;0.40;99.90;;;;;;4352414;32;20159;-77
2021/12/01 19:00:45;;;;;;;4.85;2.90;;;0.40;99.90;;;;;;4352793;32;20078;-77
2021/12/01 19:03:12;;;;;;;3.58;2.40;;;0.40;99.90;;;;;;4364802;32;20081;-76
2021/12/01 19:05:38;;;;;;;2.35;2.10;;;0.30;99.90;;;;;;4327459;32;20497;-77
2021/12/01 19:08:04;;;;;;;3.58;2.33;;;0.40;99.90;;;;;;4352304;32;20518;-77
2021/12/01 19:10:31;;;;;;;2.67;2.10;;;0.40;99.90;;;;;;4364631;32;20534;-77
2021/12/01 19:12:58;;;;;;;3.35;2.50;;;0.40;99.90;;;;;;4340853;32;20457;-77
2021/12/01 19:15:24;;;;;;;4.87;2.50;;;0.40;99.90;;;;;;4352162;32;20471;-78
2021/12/01 19:17:55;;;;;;;2.58;2.00;;;0.50;99.90;;;;;;4339832;32;20094;-77
2021/12/01 19:20:23;;;;;;;4.03;2.30;;;0.40;99.90;;;;;;4352745;32;20520;-77
2021/12/01 19:22:50;;;;;;;4.57;2.65;;;0.50;99.90;;;;;;4364497;32;20151;-77
2021/12/01 19:25:17;;;;;;;5.03;2.50;;;0.50;99.90;;;;;;4352113;32;20502;-77
2021/12/01 19:27:44;;;;;;;4.75;2.67;;;0.40;99.90;;;;;;4340168;32;20433;-77
2021/12/01 19:30:18;;;;;;;4.45;2.25;;;0.30;99.90;;;;;;4352187;32;20554;-78
2021/12/01 19:32:45;;;;;;;2.40;2.00;;;0.30;99.90;;;;;;4352408;32;20062;-78
2021/12/01 19:35:12;;;;;;;2.55;2.10;;;0.30;99.90;;;;;;4327511;32;20071;-77
2021/12/01 19:37:39;;;;;;;2.75;2.12;;;0.20;99.90;;;;;;4352460;32;20168;-77
2021/12/01 19:40:06;;;;;;;3.08;2.12;;;0.30;99.90;;;;;;4327227;32;20085;-78
2021/12/01 19:42:32;;;;;;;4.90;2.30;;;0.20;99.90;;;;;;4351789;32;20089;-77
2021/12/01 19:44:58;;;;;;;2.70;1.92;;;0.30;99.90;;;;;;4327274;32;20169;-77
2021/12/01 19:47:26;;;;;;;3.10;2.28;;;0.40;99.90;;;;;;4351544;32;20166;-77
2021/12/01 19:49:52;;;;;;;2.83;2.08;;;0.30;99.90;;;;;;4339779;32;20077;-78
2021/12/01 19:52:23;;;;;;;2.20;2.00;;;0.40;99.90;;;;;;4351838;32;20090;-77
2021/12/01 19:54:49;;;;;;;3.60;2.17;;;0.30;99.90;;;;;;4351676;32;20599;-77
2021/12/01 19:57:16;;;;;;;2.67;1.92;;;0.30;99.90;;;;;;4339721;32;20507;-77
2021/12/01 19:59:43;;;;;;;2.83;2.08;;;0.30;99.90;;;;;;4339607;32;20106;-77
2021/12/01 20:02:11;;;;;;;2.33;1.90;;;0.30;99.90;;;;;;4363713;32;20506;-77
2021/12/01 20:04:37;;;;;;;2.37;1.62;;;0.30;99.90;;;;;;4351764;32;20155;-77
2021/12/01 20:07:04;;;;;;;2.65;1.85;;;0.30;99.90;;;;;;4351210;32;20054;-77
2021/12/01 20:09:30;;;;;;;2.90;2.10;;;0.30;99.90;;;;;;4339774;32;20145;-77
2021/12/01 20:12:01;;;;;;;2.85;1.90;;;0.30;99.90;;;;;;4339450;32;20097;-78
2021/12/01 20:14:29;;;;;;;2.15;1.95;;;0.30;99.90;;;;;;4364860;32;20074;-77
2021/12/01 20:16:55;;;;;;;2.10;1.90;;;0.20;99.90;;;;;;4327213;32;20157;-77
2021/12/01 20:19:23;;;;;;;1.87;1.60;;;0.20;99.90;;;;;;4363788;32;20616;-78
2021/12/01 20:21:50;;;;;;;3.17;1.83;;;0.20;99.90;;;;;;4327652;32;20090;-77
2021/12/01 20:24:16;;;;;;;2.33;1.83;;;0.10;99.90;;;;;;4338961;32;20081;-77
2021/12/01 20:26:44;;;;;;;3.28;1.87;;;0.20;99.90;;;;;;4339045;32;20166;-77
2021/12/01 20:29:11;;;;;;;2.87;2.10;;;0.20;99.90;;;;;;4327791;32;20175;-78
2021/12/01 20:31:38;;;;;;;3.10;2.10;;;0.30;99.90;;;;;;4351794;32;20147;-78
2021/12/01 20:34:10;;;;;;;2.15;1.67;;;0.30;99.90;;;;;;4338972;32;20105;-78
2021/12/01 20:36:36;;;;;;;3.50;2.50;;;0.30;99.90;;;;;;4315564;32;20067;-78
2021/12/01 20:39:05;;;;;;;2.53;1.92;;;0.40;99.90;;;;;;4338838;32;20065;-77
2021/12/01 20:41:33;;;;;;;7.90;2.65;;;0.30;99.90;;;;;;4351286;32;20070;-78
2021/12/01 20:44:05;;;;;;;2.95;2.10;;;0.30;99.90;;;;;;4351148;32;20501;-77
2021/12/01 20:56:44;;;;;;;2.28;1.80;;;0.20;99.90;;;;;;4338818;32;20078;-79
2021/12/01 21:01:47;;;;;;;2.70;2.12;;;0.10;99.90;;;;;;4329712;32;20077;-77
2021/12/01 21:04:32;;;;;;;2.33;1.90;;;0.10;99.90;;;;;;4350739;32;20078;-77
2021/12/01 21:06:58;;;;;;;3.25;2.05;;;0.10;99.90;;;;;;4365317;32;20074;-78
2021/12/01 21:11:54;;;;;;;2.20;1.87;;;0.10;99.90;;;;;;4351141;32;20153;-77
2021/12/01 21:14:20;;;;;;;3.22;2.08;;;0.10;99.90;;;;;;4351195;32;20157;-77
2021/12/01 21:16:47;;;;;;;2.35;1.80;;;0.10;99.90;;;;;;4338162;32;20086;-77
2021/12/01 21:19:15;;;;;;;1.90;1.62;;;0.10;99.90;;;;;;4338867;32;20448;-77
2021/12/01 21:21:43;;;;;;;1.62;1.52;;;0.00;99.90;;;;;;4326440;32;20121;-78
2021/12/01 21:24:12;;;;;;;2.10;1.70;;;0.10;99.90;;;;;;4363210;32;20085;-77
2021/12/01 21:26:38;;;;;;;1.83;1.48;;;0.20;99.90;;;;;;4350632;32;20082;-78
2021/12/01 21:29:06;;;;;;;1.70;1.60;;;0.20;99.90;;;;;;4350422;32;20090;-78
2021/12/01 21:31:34;;;;;;;2.22;1.77;;;0.20;99.90;;;;;;4338877;32;20074;-78
2021/12/01 21:34:01;;;;;;;3.12;1.92;;;0.30;99.90;;;;;;4350943;32;20089;-78
2021/12/01 21:36:29;;;;;;;2.20;1.70;;;0.20;99.90;;;;;;4338151;32;20102;-76
2021/12/01 21:38:56;;;;;;;2.95;1.70;;;0.20;99.90;;;;;;4350159;32;20082;-78
2021/12/01 21:41:22;;;;;;;2.90;1.98;;;0.10;99.90;;;;;;4350549;32;20578;-78
2021/12/01 21:43:50;;;;;;;2.95;1.85;;;0.10;99.90;;;;;;4338306;32;20058;-77
2021/12/01 21:46:17;;;;;;;2.60;1.90;;;0.00;99.90;;;;;;4362646;32;20146;-78
2021/12/01 21:48:43;;;;;;;2.65;1.92;;;0.10;99.90;;;;;;4350455;32;20074;-77
2021/12/01 21:51:21;;;;;;;3.28;1.70;;;0.00;99.90;;;;;;4337984;32;20142;-77
2021/12/01 21:53:50;;;;;;;1.67;1.58;;;0.00;99.90;;;;;;4326760;32;20444;-78
2021/12/01 21:56:25;;;;;;;2.92;1.90;;;0.00;99.90;;;;;;4362560;32;20096;-77
2021/12/01 21:58:52;;;;;;;2.53;1.90;;;0.00;99.90;;;;;;4350384;32;20134;-77
2021/12/01 22:01:19;;;;;;;2.55;1.90;;;0.00;99.90;;;;;;4362414;32;20082;-77
2021/12/01 22:03:45;;;;;;;2.05;1.60;;;0.00;99.90;;;;;;4338024;32;20194;-77
2021/12/01 22:06:12;;;;;;;2.97;1.65;;;0.10;99.90;;;;;;4349814;32;20159;-78
2021/12/01 22:08:39;;;;;;;2.05;1.70;;;0.10;99.90;;;;;;4337349;32;20573;-77
2021/12/01 22:11:06;;;;;;;2.45;1.70;;;0.10;99.90;;;;;;4337949;32;20178;-77
2021/12/01 22:13:32;;;;;;;3.05;1.95;;;0.10;99.90;;;;;;4338361;32;20158;-77
2021/12/01 22:15:58;;;;;;;2.55;1.75;;;0.10;99.90;;;;;;4337824;32;20074;-78
2021/12/01 22:18:25;;;;;;;3.03;2.00;;;0.10;99.90;;;;;;4362356;32;20077;-77
2021/12/01 22:20:59;;;;;;;1.98;1.67;;;0.10;99.90;;;;;;4362443;32;20078;-78
2021/12/01 22:23:28;;;;;;;2.65;1.90;;;0.00;99.90;;;;;;4339102;32;20074;-78
2021/12/01 22:25:55;;;;;;;2.85;2.10;;;0.00;99.90;;;;;;4350713;32;20101;-78
2021/12/01 22:28:21;;;;;;;2.05;1.60;;;0.10;99.90;;;;;;4349907;32;20101;-77
2021/12/01 22:30:48;;;;;;;2.80;2.08;;;0.00;99.90;;;;;;4337621;32;20101;-77
2021/12/01 22:33:14;;;;;;;2.30;1.73;;;0.00;99.90;;;;;;4349587;32;20081;-77
2021/12/01 22:35:41;;;;;;;2.17;1.83;;;0.00;99.90;;;;;;4337667;32;20070;-78
2021/12/01 22:38:07;;;;;;;2.78;1.98;;;0.00;99.90;;;;;;4325360;32;20081;-77
2021/12/01 22:40:34;;;;;;;2.35;1.75;;;0.10;99.90;;;;;;4362208;32;20066;-77
2021/12/01 22:43:01;;;;;;;2.40;1.70;;;0.00;99.90;;;;;;4337589;32;20464;-77
2021/12/01 22:45:27;;;;;;;2.35;1.87;;;0.00;99.90;;;;;;4338266;32;20186;-77
2021/12/01 22:47:55;;;;;;;2.58;1.70;;;0.00;99.90;;;;;;4362396;32;20082;-78
2021/12/01 22:50:24;;;;;;;2.40;1.70;;;0.00;99.90;;;;;;4350517;32;20097;-77
2021/12/01 22:52:54;;;;;;;1.87;1.75;;;0.00;99.90;;;;;;4326605;32;20066;-77
2021/12/01 22:55:22;;;;;;;2.17;1.60;;;-0.10;99.90;;;;;;4341479;32;20515;-77
2021/12/01 22:57:55;;;;;;;2.12;1.70;;;-0.10;99.90;;;;;;4352951;32;20092;-77
2021/12/01 23:00:25;;;;;;;3.03;1.92;;;-0.10;99.90;;;;;;4339102;32;20074;-77
2021/12/01 23:03:14;;;;;;;1.73;1.55;;;-0.20;99.90;;;;;;4363652;32;20085;-77
2021/12/01 23:05:44;;;;;;;2.95;1.70;;;-0.20;99.90;;;;;;4364340;32;20504;-77
2021/12/01 23:08:12;;;;;;;2.10;1.62;;;-0.30;99.90;;;;;;4364606;32;20058;-77
2021/12/01 23:10:38;;;;;;;2.87;1.83;;;-0.20;99.90;;;;;;4327795;32;20163;-78
2021/12/01 23:13:05;;;;;;;2.65;1.98;;;-0.20;99.90;;;;;;4342009;32;20133;-78
2021/12/01 23:15:31;;;;;;;2.28;1.70;;;-0.30;99.90;;;;;;4355372;32;20066;-77
2021/12/01 23:17:57;;;;;;;3.05;2.00;;;-0.20;99.90;;;;;;4344091;32;20085;-77
2021/12/01 23:20:23;;;;;;;2.03;1.83;;;-0.20;99.90;;;;;;4343863;32;20085;-79
2021/12/01 23:23:15;;;;;;;1.77;1.52;;;-0.20;99.90;;;;;;4353181;32;20090;-78
2021/12/01 23:28:33;;;;;;;2.58;1.60;;;-0.50;99.90;;;;;;4356772;32;20102;-77
2021/12/01 23:30:59;;;;;;;2.65;1.85;;;-0.50;99.90;;;;;;4340681;32;20073;-78
2021/12/01 23:33:42;;;;;;;2.37;1.70;;;-0.60;99.90;;;;;;4339485;32;20539;-78
2021/12/01 23:36:10;;;;;;;2.22;1.60;;;-0.60;99.90;;;;;;4352525;32;20078;-78
2021/12/01 23:38:37;;;;;;;2.72;1.73;;;-0.60;99.90;;;;;;4340132;32;20089;-78
2021/12/01 23:41:03;;;;;;;2.33;2.00;;;-0.70;99.90;;;;;;4364240;32;20156;-77
2021/12/01 23:43:30;;;;;;;2.70;1.70;;;-0.80;99.90;;;;;;4352307;32;20153;-77
2021/12/01 23:51:22;;;;;;;3.12;2.10;;;-0.90;99.90;;;;;;4365689;32;20529;-78